CST,Max TemperatureF,Mean TemperatureF,Min TemperatureF,Max Dew PointF,MeanDew PointF,Min DewpointF,Max Humidity, Mean Humidity, Min Humidity, Max Sea Level PressureIn, Mean Sea Level PressureIn, Min Sea Level PressureIn, Max VisibilityMiles, Mean VisibilityMiles, Min VisibilityMiles, Max Wind SpeedMPH, Mean Wind SpeedMPH, Max Gust SpeedMPH,PrecipitationIn, CloudCover, Events, WindDirDegrees
2011-11-1,75,63,53,51,47,43,74,59,38,29.94,29.88,29.82,10,10,10,17,9,25,0.00,1,,212
2011-11-2,59,48,37,46,38,33,93,85,62,30.25,30.09,29.90,10,8,2,23,11,36,0.14,8,Rain-Snow-Thunderstorm,12
2011-11-3,52,40,28,31,27,25,92,63,35,30.37,30.30,30.25,10,10,10,10,7,23,0.00,1,,348
2011-11-4,57,40,23,37,30,21,96,71,39,30.30,30.18,30.04,10,10,9,15,4,23,0.00,0,,163
2011-11-5,61,48,37,43,40,36,93,68,47,30.01,29.85,29.67,10,10,10,26,11,36,0.00,0,,175
2011-11-6,62,50,39,44,35,27,89,55,27,30.09,29.91,29.68,10,10,10,21,12,37,0.00,0,,206
2011-11-7,57,45,33,50,40,28,97,83,47,30.16,30.04,29.95,10,6,1,21,7,29,1.52,6,Rain-Thunderstorm,36
2011-11-8,45,39,33,45,40,32,100,95,87,30.11,29.97,29.89,10,4,2,20,13,30,1.51,8,Rain-Snow,27
2011-11-9,53,40,28,35,29,23,93,69,31,30.39,30.29,30.10,10,10,7,12,4,24,0.04,1,Rain,327
2011-11-10,52,38,25,30,25,22,92,69,33,30.40,30.27,30.04,10,10,10,7,2,,0.00,0,,201
2011-11-11,62,44,27,38,33,26,100,69,34,30.01,29.86,29.77,10,10,10,10,4,,0.00,0,,223
2011-11-12,64,49,34,42,37,34,100,67,38,29.76,29.55,29.38,10,10,10,20,6,31,0.00,0,,204
2011-11-13,64,52,39,40,34,27,86,52,25,29.62,29.52,29.32,10,10,10,18,10,25,0.00,0,,245
2011-11-14,57,46,36,36,33,31,86,58,36,29.76,29.69,29.53,10,10,10,13,5,,0.00,0,,252
2011-11-15,66,50,33,36,30,25,89,57,26,30.06,29.83,29.69,10,10,10,9,6,,0.00,0,,326
2011-11-16,42,34,26,29,21,15,92,59,34,30.42,30.28,30.07,10,10,10,9,6,,0.00,4,,340
2011-11-17,50,34,19,28,22,18,96,64,32,30.42,30.26,29.99,10,10,10,21,7,28,0.00,0,,206
2011-11-18,60,50,41,41,34,24,71,55,44,29.96,29.78,29.65,10,10,10,30,19,38,0.00,0,,201
2011-11-19,62,45,28,50,35,23,83,75,50,30.17,29.82,29.51,10,10,10,25,12,34,0.00,5,,298
2011-11-20,36,32,28,27,24,21,86,74,64,30.32,30.25,30.17,10,10,7,20,12,24,0.00,8,,42
2011-11-21,39,36,33,34,31,27,89,83,75,30.27,30.18,30.07,10,8,7,6,2,,0.00,8,,65
2011-11-22,42,34,26,37,34,27,100,92,76,30.19,30.10,30.03,10,5,0,6,2,,0.04,6,Fog-Rain,341
2011-11-23,62,43,24,39,30,21,100,86,39,30.25,30.18,30.14,10,7,0,8,1,,0.00,2,Fog,224
2011-11-24,70,52,33,45,41,33,100,67,35,30.12,30.02,29.89,10,10,8,23,8,34,0.00,0,,203
2011-11-25,64,56,48,54,49,43,96,80,60,29.87,29.77,29.69,10,8,3,23,16,34,0.24,6,Rain,208
2011-11-26,53,44,34,53,32,17,100,63,35,30.29,30.04,29.73,10,10,5,18,8,32,0.15,4,Rain,345
2011-11-27,43,32,21,19,16,12,89,56,32,30.37,30.30,30.25,10,10,10,10,5,18,0.00,0,,343
2011-11-28,48,32,17,24,19,15,92,65,29,30.24,30.16,30.07,10,10,10,7,1,17,0.00,0,,288
2011-11-29,48,36,23,30,21,10,81,57,24,30.38,30.29,30.14,10,10,10,14,7,22,0.00,0,,4
2011-11-30,55,37,19,24,20,16,89,55,27,30.26,30.07,29.93,10,10,10,21,4,31,0.00,0,,184